createdAt,value
2023-01-31T00:02:42.792Z,101899.91
2023-01-31T00:06:51.072Z,101898.56
2023-01-31T00:10:54.295Z,101898.41
2023-01-31T00:14:57.557Z,101897.72
2023-01-31T00:19:00.694Z,101895.53
2023-01-31T00:23:05.192Z,101904.63
2023-01-31T00:27:08.748Z,101907.13
2023-01-31T00:31:12.579Z,101896.19
2023-01-31T00:35:15.765Z,101909.25
2023-01-31T00:39:22.238Z,101893.13
2023-01-31T00:43:25.412Z,101899.81
2023-01-31T00:47:29.312Z,101906.00
2023-01-31T00:51:33.226Z,101900.44
2023-01-31T00:55:39.059Z,101903.94
2023-01-31T00:59:45.825Z,101906.59
2023-01-31T01:03:59.719Z,101895.66
2023-01-31T01:08:02.840Z,101911.22
2023-01-31T01:12:07.460Z,101902.31
2023-01-31T01:16:14.181Z,101903.97
2023-01-31T01:20:18.145Z,101896.53
2023-01-31T01:24:21.091Z,101902.25
2023-01-31T01:28:28.662Z,101894.50
2023-01-31T01:32:33.953Z,101889.63
2023-01-31T01:36:37.740Z,101892.31
2023-01-31T01:40:42.383Z,101901.50
2023-01-31T01:44:50.440Z,101905.03
2023-01-31T01:48:56.844Z,101900.50
2023-01-31T01:53:04.478Z,101920.84
2023-01-31T01:57:08.692Z,101916.59
2023-01-31T02:01:36.207Z,101921.97
2023-01-31T02:05:51.655Z,101927.34
2023-01-31T02:10:01.153Z,101936.09
2023-01-31T02:14:08.454Z,101927.72
2023-01-31T02:18:13.583Z,101948.06
2023-01-31T02:22:23.954Z,101938.84
2023-01-31T02:26:54.373Z,101928.31
2023-01-31T02:31:33.232Z,101917.78
2023-01-31T02:35:50.893Z,101914.06
2023-01-31T02:40:02.825Z,101901.31
2023-01-31T02:44:36.745Z,101916.28
2023-01-31T02:48:52.805Z,101901.03
2023-01-31T02:53:03.828Z,101897.00
2023-01-31T02:57:09.164Z,101881.06
2023-01-31T03:01:19.514Z,101882.81
2023-01-31T03:05:22.859Z,101882.16
2023-01-31T03:09:37.979Z,101881.34
2023-01-31T03:13:54.436Z,101868.09
2023-01-31T03:18:03.085Z,101866.94
2023-01-31T03:22:15.125Z,101866.63
2023-01-31T03:26:21.027Z,101857.72
2023-01-31T03:30:32.717Z,101865.59
2023-01-31T03:34:36.715Z,101857.56
2023-01-31T03:38:50.997Z,101851.00
2023-01-31T03:43:01.996Z,101842.44
2023-01-31T03:47:11.927Z,101833.06
2023-01-31T03:51:20.893Z,101830.69
2023-01-31T03:55:32.463Z,101834.75
2023-01-31T03:59:40.678Z,101828.53
2023-01-31T04:03:47.296Z,101822.47
2023-01-31T04:07:50.686Z,101814.06
2023-01-31T04:12:01.105Z,101818.28
2023-01-31T04:16:06.087Z,101811.53
2023-01-31T04:20:10.921Z,101820.31
2023-01-31T04:24:14.008Z,101816.44
2023-01-31T04:28:18.211Z,101800.63
2023-01-31T04:32:22.621Z,101801.94
2023-01-31T04:36:25.847Z,101807.84
2023-01-31T04:40:28.793Z,101788.66
2023-01-31T04:44:31.919Z,101779.44
2023-01-31T04:48:36.721Z,101777.03
2023-01-31T04:52:40.524Z,101770.31
2023-01-31T04:56:44.400Z,101765.47
2023-01-31T05:00:48.401Z,101745.06
2023-01-31T05:04:53.339Z,101749.44
2023-01-31T05:08:56.135Z,101738.16
2023-01-31T05:12:59.228Z,101729.91
2023-01-31T05:17:02.658Z,101729.06
2023-01-31T05:21:08.608Z,101718.81
2023-01-31T05:25:11.835Z,101708.69
2023-01-31T05:29:14.930Z,101702.84
2023-01-31T05:33:20.637Z,101698.94
2023-01-31T05:37:25.246Z,101698.75
2023-01-31T05:41:28.122Z,101694.22
2023-01-31T05:45:36.731Z,101686.00
2023-01-31T05:49:40.070Z,101706.66
2023-01-31T05:53:44.305Z,101706.66
2023-01-31T05:57:47.981Z,101708.50
2023-01-31T06:01:51.125Z,101709.84
2023-01-31T06:05:54.378Z,101720.63
2023-01-31T06:10:00.981Z,101721.09
2023-01-31T06:14:04.311Z,101710.31
2023-01-31T06:18:07.391Z,101717.56
2023-01-31T06:22:10.697Z,101716.91
2023-01-31T06:26:15.708Z,101714.72
2023-01-31T06:30:19.073Z,101713.88
2023-01-31T06:34:22.706Z,101718.06
2023-01-31T06:38:25.718Z,101708.78
2023-01-31T06:42:30.553Z,101700.72
2023-01-31T06:46:33.885Z,101688.09
2023-01-31T06:50:36.924Z,101684.22
2023-01-31T06:54:40.174Z,101674.47
2023-01-31T06:58:44.526Z,101667.91
2023-01-31T07:02:47.901Z,101673.28
2023-01-31T07:06:51.000Z,101664.84
2023-01-31T07:10:54.002Z,101657.25
2023-01-31T07:14:58.315Z,101664.31
2023-01-31T07:19:01.843Z,101651.88
2023-01-31T07:23:04.821Z,101661.28
2023-01-31T07:27:08.196Z,101663.59
2023-01-31T07:31:14.989Z,101661.56
2023-01-31T07:35:18.989Z,101638.16
2023-01-31T07:39:23.649Z,101639.00
2023-01-31T07:43:26.509Z,101631.41
2023-01-31T07:47:31.252Z,101627.06
2023-01-31T07:51:35.862Z,101628.34
2023-01-31T07:55:38.912Z,101621.59
2023-01-31T07:59:41.903Z,101620.22
2023-01-31T08:03:46.661Z,101605.19
2023-01-31T08:08:09.735Z,101615.13
2023-01-31T08:12:12.689Z,101597.59
2023-01-31T08:16:15.721Z,101591.00
2023-01-31T08:20:20.353Z,101582.19
2023-01-31T08:24:23.250Z,101588.91
2023-01-31T08:28:27.393Z,101591.22
2023-01-31T08:32:30.836Z,101580.09
2023-01-31T08:36:36.136Z,101569.75
2023-01-31T08:40:39.210Z,101560.50
2023-01-31T08:44:43.745Z,101549.81
2023-01-31T08:48:46.705Z,101556.34
2023-01-31T08:52:54.842Z,101560.31
2023-01-31T08:56:57.633Z,101554.91
2023-01-31T09:01:02.651Z,101546.66
2023-01-31T09:05:08.263Z,101533.84
2023-01-31T09:09:12.722Z,101535.13
2023-01-31T09:13:15.764Z,101524.44
2023-01-31T09:17:19.969Z,101528.63
2023-01-31T09:21:24.193Z,101524.72
2023-01-31T09:25:43.761Z,101527.84
2023-01-31T09:29:48.616Z,101520.44
2023-01-31T09:33:52.200Z,101509.06
2023-01-31T09:37:56.161Z,101515.97
2023-01-31T09:42:05.512Z,101511.00
2023-01-31T09:46:14.535Z,101508.16
2023-01-31T09:50:23.159Z,101510.34
2023-01-31T09:54:30.821Z,101518.63
2023-01-31T09:58:41.167Z,101530.34
2023-01-31T10:03:14.790Z,101520.19
2023-01-31T10:07:26.451Z,101522.53
2023-01-31T10:11:36.573Z,101533.13
2023-01-31T10:15:45.233Z,101514.63
2023-01-31T10:19:54.158Z,101512.84
2023-01-31T10:24:01.349Z,101485.72
2023-01-31T10:28:11.409Z,101478.06
2023-01-31T10:32:22.608Z,101474.78
2023-01-31T10:36:30.398Z,101483.59
2023-01-31T10:40:37.021Z,101473.69
2023-01-31T10:44:48.217Z,101477.28
2023-01-31T10:48:52.720Z,101477.53
2023-01-31T10:53:15.697Z,101472.94
2023-01-31T10:57:19.096Z,101463.19
2023-01-31T11:01:22.306Z,101459.44
2023-01-31T11:05:29.876Z,101464.84
2023-01-31T11:09:37.476Z,101455.13
2023-01-31T11:13:41.134Z,101441.81
2023-01-31T11:17:45.550Z,101448.06
2023-01-31T11:21:52.610Z,101452.84
2023-01-31T11:25:57.653Z,101444.53
2023-01-31T11:30:01.366Z,101454.28
2023-01-31T11:34:14.348Z,101440.16
2023-01-31T11:38:24.242Z,101437.84
2023-01-31T11:42:28.261Z,101428.91
2023-01-31T11:46:31.370Z,101426.41
2023-01-31T11:50:37.522Z,101420.38
2023-01-31T11:54:44.971Z,101400.16
2023-01-31T11:58:50.829Z,101388.88
2023-01-31T12:03:00.950Z,101395.28
2023-01-31T12:07:06.878Z,101395.44
2023-01-31T12:11:28.642Z,101397.50
2023-01-31T12:15:32.784Z,101384.63
2023-01-31T12:19:47.477Z,101392.69
2023-01-31T12:24:03.742Z,101384.59
2023-01-31T12:28:17.367Z,101398.88
2023-01-31T12:32:33.114Z,101397.59
2023-01-31T12:36:48.173Z,101392.44
2023-01-31T12:41:01.738Z,101391.72
2023-01-31T12:45:20.869Z,101395.53
2023-01-31T12:49:43.790Z,101384.34
2023-01-31T12:54:02.371Z,101393.28
2023-01-31T12:58:23.000Z,101385.81
2023-01-31T13:02:42.165Z,101383.38
2023-01-31T13:06:49.895Z,101384.00
2023-01-31T13:10:59.446Z,101384.91
2023-01-31T13:15:06.398Z,101369.31
2023-01-31T13:19:19.462Z,101372.06
2023-01-31T13:23:29.876Z,101354.00
2023-01-31T13:27:39.360Z,101359.44
2023-01-31T13:31:47.982Z,101363.06
2023-01-31T13:36:00.881Z,101363.94
2023-01-31T13:40:16.417Z,101370.22
2023-01-31T13:44:20.886Z,101364.84
2023-01-31T13:48:30.771Z,101365.91
2023-01-31T13:52:40.651Z,101363.69
2023-01-31T13:56:43.952Z,101360.38
2023-01-31T14:00:51.001Z,101363.97
2023-01-31T14:04:53.960Z,101371.06
2023-01-31T14:09:01.876Z,101365.47
2023-01-31T14:13:37.613Z,101365.50
2023-01-31T14:18:01.438Z,101363.44
2023-01-31T14:22:16.285Z,101352.03
2023-01-31T14:26:53.537Z,101349.34
2023-01-31T14:30:57.228Z,101359.97
2023-01-31T14:35:09.064Z,101377.47
2023-01-31T14:39:54.242Z,101369.38
2023-01-31T14:44:13.254Z,101378.13
2023-01-31T14:48:24.957Z,101386.03
2023-01-31T14:52:48.816Z,101389.38
2023-01-31T14:57:21.567Z,101384.81
2023-01-31T15:01:35.532Z,101385.41
2023-01-31T15:05:47.360Z,101393.31
2023-01-31T15:09:50.780Z,101393.13
2023-01-31T15:13:55.380Z,101400.00
2023-01-31T15:18:02.509Z,101396.06
2023-01-31T15:22:08.432Z,101401.25
2023-01-31T15:26:11.709Z,101399.81
2023-01-31T15:30:20.295Z,101405.84
2023-01-31T15:34:31.776Z,101411.25
2023-01-31T15:38:39.163Z,101409.81
2023-01-31T15:42:42.144Z,101408.56
2023-01-31T15:46:47.210Z,101409.63
2023-01-31T15:50:54.014Z,101428.78
2023-01-31T15:54:59.013Z,101426.09
2023-01-31T15:59:15.134Z,101424.44
2023-01-31T16:03:23.013Z,101424.84
2023-01-31T16:07:31.385Z,101427.78
2023-01-31T16:11:38.498Z,101425.47
2023-01-31T16:15:42.051Z,101427.16
2023-01-31T16:19:49.833Z,101444.25
2023-01-31T16:24:00.916Z,101436.13
2023-01-31T16:28:06.615Z,101451.72
2023-01-31T16:32:20.601Z,101455.69
2023-01-31T16:36:26.168Z,101449.66
2023-01-31T16:40:35.542Z,101461.72
2023-01-31T16:44:43.716Z,101464.25
2023-01-31T16:49:02.838Z,101482.53
2023-01-31T16:53:17.925Z,101468.97
2023-01-31T16:57:38.299Z,101471.91
2023-01-31T17:01:41.996Z,101478.34
2023-01-31T17:05:47.601Z,101476.25
2023-01-31T17:09:55.526Z,101481.66
2023-01-31T17:13:59.978Z,101471.28
2023-01-31T17:18:02.823Z,101484.00
2023-01-31T17:22:06.089Z,101478.16
2023-01-31T17:26:15.306Z,101494.81
2023-01-31T17:30:22.103Z,101494.59
2023-01-31T17:34:25.393Z,101492.91
2023-01-31T17:38:28.238Z,101496.22
2023-01-31T17:42:42.601Z,101497.66
2023-01-31T17:46:47.036Z,101494.75
2023-01-31T17:50:52.301Z,101496.97
2023-01-31T17:54:56.791Z,101494.03
2023-01-31T17:59:00.129Z,101498.59
2023-01-31T18:03:04.421Z,101493.13
2023-01-31T18:07:07.900Z,101499.38
2023-01-31T18:11:14.914Z,101498.31
2023-01-31T18:15:17.966Z,101488.50
2023-01-31T18:19:22.598Z,101481.78
2023-01-31T18:23:25.997Z,101485.09
2023-01-31T18:27:29.070Z,101483.84
2023-01-31T18:31:32.619Z,101475.69
2023-01-31T18:35:41.165Z,101489.53
2023-01-31T18:39:45.512Z,101495.59
2023-01-31T18:43:49.361Z,101484.47
2023-01-31T18:47:52.822Z,101500.25
2023-01-31T18:51:59.169Z,101480.69
2023-01-31T18:56:05.511Z,101489.00
2023-01-31T19:00:10.668Z,101486.63
2023-01-31T19:04:14.534Z,101490.78
2023-01-31T19:08:27.814Z,101497.56
2023-01-31T19:12:32.446Z,101510.84
2023-01-31T19:16:39.838Z,101506.47
2023-01-31T19:20:43.534Z,101508.53
2023-01-31T19:24:48.569Z,101501.00
2023-01-31T19:28:52.392Z,101498.06
2023-01-31T19:32:55.722Z,101496.97
2023-01-31T19:36:58.676Z,101500.88
2023-01-31T19:41:08.450Z,101504.34
2023-01-31T19:45:12.812Z,101496.63
2023-01-31T19:49:25.203Z,101506.81
2023-01-31T19:53:30.841Z,101502.81
2023-01-31T19:57:37.994Z,101504.22
2023-01-31T20:01:48.064Z,101500.44
2023-01-31T20:06:06.505Z,101514.28
2023-01-31T20:10:29.114Z,101508.63
2023-01-31T20:14:38.560Z,101504.94
2023-01-31T20:18:42.516Z,101509.03
2023-01-31T20:22:45.954Z,101514.97
2023-01-31T20:26:50.033Z,101509.97
2023-01-31T20:30:54.956Z,101513.22
2023-01-31T20:34:58.141Z,101504.66
2023-01-31T20:39:01.990Z,101498.16
2023-01-31T20:43:08.120Z,101496.50
2023-01-31T20:47:12.809Z,101491.66
2023-01-31T20:51:16.391Z,101484.13
2023-01-31T20:55:19.281Z,101481.81
2023-01-31T20:59:22.251Z,101501.72
2023-01-31T21:03:27.383Z,101489.63
2023-01-31T21:07:54.861Z,101498.13
2023-01-31T21:11:57.859Z,101506.56
2023-01-31T21:16:05.079Z,101504.44
2023-01-31T21:20:11.157Z,101510.84
2023-01-31T21:24:14.475Z,101509.19
2023-01-31T21:28:17.624Z,101503.34
2023-01-31T21:32:20.851Z,101515.16
2023-01-31T21:36:26.691Z,101510.94
2023-01-31T21:40:29.724Z,101511.97
2023-01-31T21:44:32.624Z,101511.88
2023-01-31T21:48:35.590Z,101510.56
2023-01-31T21:52:42.067Z,101505.75
2023-01-31T21:56:45.585Z,101489.09
2023-01-31T22:00:48.924Z,101485.13
2023-01-31T22:04:52.058Z,101489.19
2023-01-31T22:08:59.278Z,101493.28
2023-01-31T22:13:02.756Z,101489.94
2023-01-31T22:17:05.795Z,101478.69
2023-01-31T22:21:10.592Z,101468.09
2023-01-31T22:25:16.036Z,101481.09
2023-01-31T22:29:19.357Z,101475.53
2023-01-31T22:33:22.443Z,101469.94
2023-01-31T22:37:26.628Z,101462.69
2023-01-31T22:41:32.722Z,101466.59
2023-01-31T22:45:36.674Z,101455.63
2023-01-31T22:49:39.580Z,101452.31
2023-01-31T22:53:43.335Z,101444.03
2023-01-31T22:57:48.834Z,101442.34
2023-01-31T23:01:51.972Z,101441.53
2023-01-31T23:05:56.053Z,101444.03
2023-01-31T23:09:58.860Z,101442.66
2023-01-31T23:14:04.026Z,101439.13
2023-01-31T23:18:07.147Z,101447.84
2023-01-31T23:22:10.879Z,101444.94
2023-01-31T23:26:14.612Z,101431.66
2023-01-31T23:30:20.680Z,101445.16
2023-01-31T23:34:23.954Z,101451.38
2023-01-31T23:38:26.994Z,101438.72
2023-01-31T23:42:30.833Z,101436.41
2023-01-31T23:46:35.951Z,101433.06
2023-01-31T23:50:39.988Z,101428.34
2023-01-31T23:54:42.904Z,101432.88
2023-01-31T23:58:45.847Z,101426.66
